sensor_id;sensor_type;location;lat;lon;timestamp;temperature;humidity
19220;DHT22;9744;49.364;7.484;2022-12-18T00:02:23;-1.60;99.90
19220;DHT22;9744;49.364;7.484;2022-12-18T00:04:50;-1.60;99.90
19220;DHT22;9744;49.364;7.484;2022-12-18T00:07:17;-1.60;99.90
19220;DHT22;9744;49.364;7.484;2022-12-18T00:09:45;-1.60;99.90
19220;DHT22;9744;49.364;7.484;2022-12-18T00:12:12;-1.60;99.90
19220;DHT22;9744;49.364;7.484;2022-12-18T00:14:40;-1.60;99.90
19220;DHT22;9744;49.364;7.484;2022-12-18T00:17:10;-1.60;99.90
19220;DHT22;9744;49.364;7.484;2022-12-18T00:19:38;-1.70;99.90
19220;DHT22;9744;49.364;7.484;2022-12-18T00:22:05;-1.70;99.90
19220;DHT22;9744;49.364;7.484;2022-12-18T00:24:33;-1.70;99.90
19220;DHT22;9744;49.364;7.484;2022-12-18T00:27:00;-1.70;99.90
19220;DHT22;9744;49.364;7.484;2022-12-18T00:29:27;-1.70;99.90
19220;DHT22;9744;49.364;7.484;2022-12-18T00:31:54;-1.80;99.90
19220;DHT22;9744;49.364;7.484;2022-12-18T00:34:21;-1.80;99.90
19220;DHT22;9744;49.364;7.484;2022-12-18T00:36:50;-1.80;99.90
19220;DHT22;9744;49.364;7.484;2022-12-18T00:39:17;-1.80;99.90
19220;DHT22;9744;49.364;7.484;2022-12-18T00:41:44;-1.80;99.90
19220;DHT22;9744;49.364;7.484;2022-12-18T00:44:30;-1.80;99.90
19220;DHT22;9744;49.364;7.484;2022-12-18T00:46:57;-1.80;99.90
19220;DHT22;9744;49.364;7.484;2022-12-18T00:49:25;-1.80;99.90
19220;DHT22;9744;49.364;7.484;2022-12-18T00:51:54;-1.80;99.90
19220;DHT22;9744;49.364;7.484;2022-12-18T00:54:21;-1.80;99.90
19220;DHT22;9744;49.364;7.484;2022-12-18T00:56:49;-1.70;99.90
19220;DHT22;9744;49.364;7.484;2022-12-18T00:59:17;-1.60;99.90
19220;DHT22;9744;49.364;7.484;2022-12-18T01:01:45;-1.80;99.90
19220;DHT22;9744;49.364;7.484;2022-12-18T01:04:12;-1.90;99.90
19220;DHT22;9744;49.364;7.484;2022-12-18T01:06:39;-1.90;99.90
19220;DHT22;9744;49.364;7.484;2022-12-18T01:09:08;-1.90;99.90
19220;DHT22;9744;49.364;7.484;2022-12-18T01:11:36;-1.20;99.90
19220;DHT22;9744;49.364;7.484;2022-12-18T01:14:03;-1.90;99.90
19220;DHT22;9744;49.364;7.484;2022-12-18T01:16:31;-1.90;99.90
19220;DHT22;9744;49.364;7.484;2022-12-18T01:18:58;-1.80;99.90
19220;DHT22;9744;49.364;7.484;2022-12-18T01:21:27;-1.90;99.90
19220;DHT22;9744;49.364;7.484;2022-12-18T01:23:55;-1.80;99.90
19220;DHT22;9744;49.364;7.484;2022-12-18T01:26:25;-1.90;99.90
19220;DHT22;9744;49.364;7.484;2022-12-18T01:28:55;-1.90;99.90
19220;DHT22;9744;49.364;7.484;2022-12-18T01:31:24;-1.90;99.90
19220;DHT22;9744;49.364;7.484;2022-12-18T01:33:53;-1.90;99.90
19220;DHT22;9744;49.364;7.484;2022-12-18T01:36:22;-2.00;99.90
19220;DHT22;9744;49.364;7.484;2022-12-18T01:38:51;-2.00;99.90
19220;DHT22;9744;49.364;7.484;2022-12-18T01:41:21;-2.00;99.90
19220;DHT22;9744;49.364;7.484;2022-12-18T01:43:52;-2.00;99.90
19220;DHT22;9744;49.364;7.484;2022-12-18T01:46:22;-2.00;99.90
19220;DHT22;9744;49.364;7.484;2022-12-18T01:48:52;-2.10;99.90
19220;DHT22;9744;49.364;7.484;2022-12-18T01:51:20;-2.20;99.90
19220;DHT22;9744;49.364;7.484;2022-12-18T01:53:49;-2.10;99.90
19220;DHT22;9744;49.364;7.484;2022-12-18T01:56:21;-2.10;99.90
19220;DHT22;9744;49.364;7.484;2022-12-18T01:58:54;-2.10;99.90
19220;DHT22;9744;49.364;7.484;2022-12-18T02:01:24;-2.10;99.90
19220;DHT22;9744;49.364;7.484;2022-12-18T02:03:52;-2.20;99.90
19220;DHT22;9744;49.364;7.484;2022-12-18T02:06:31;-2.20;99.90
19220;DHT22;9744;49.364;7.484;2022-12-18T02:09:08;-2.20;99.90
19220;DHT22;9744;49.364;7.484;2022-12-18T02:11:45;-2.20;99.90
19220;DHT22;9744;49.364;7.484;2022-12-18T02:14:26;-2.20;99.90
19220;DHT22;9744;49.364;7.484;2022-12-18T02:17:01;-2.20;99.90
19220;DHT22;9744;49.364;7.484;2022-12-18T02:19:47;-2.20;99.90
19220;DHT22;9744;49.364;7.484;2022-12-18T02:22:27;-2.20;99.90
19220;DHT22;9744;49.364;7.484;2022-12-18T02:25:18;-2.30;99.90
19220;DHT22;9744;49.364;7.484;2022-12-18T02:27:49;-2.30;99.90
19220;DHT22;9744;49.364;7.484;2022-12-18T02:30:20;-2.40;99.90
19220;DHT22;9744;49.364;7.484;2022-12-18T02:32:50;-2.30;99.90
19220;DHT22;9744;49.364;7.484;2022-12-18T02:35:22;-2.30;99.90
19220;DHT22;9744;49.364;7.484;2022-12-18T02:37:53;-2.30;99.90
19220;DHT22;9744;49.364;7.484;2022-12-18T02:40:22;-2.30;99.90
19220;DHT22;9744;49.364;7.484;2022-12-18T02:42:52;-2.30;99.90
19220;DHT22;9744;49.364;7.484;2022-12-18T02:45:20;-2.40;99.90
19220;DHT22;9744;49.364;7.484;2022-12-18T02:47:48;-2.40;99.90
19220;DHT22;9744;49.364;7.484;2022-12-18T02:50:22;-2.40;99.90
19220;DHT22;9744;49.364;7.484;2022-12-18T02:53:03;-2.40;99.90
19220;DHT22;9744;49.364;7.484;2022-12-18T02:55:44;-2.50;99.90
19220;DHT22;9744;49.364;7.484;2022-12-18T02:58:18;-2.40;99.90
19220;DHT22;9744;49.364;7.484;2022-12-18T03:00:56;-2.40;99.90
19220;DHT22;9744;49.364;7.484;2022-12-18T03:03:26;-2.50;99.90
19220;DHT22;9744;49.364;7.484;2022-12-18T03:06:02;-2.50;99.90
19220;DHT22;9744;49.364;7.484;2022-12-18T03:08:34;-2.50;99.90
19220;DHT22;9744;49.364;7.484;2022-12-18T03:11:06;-2.50;99.90
19220;DHT22;9744;49.364;7.484;2022-12-18T03:13:38;-2.60;99.90
19220;DHT22;9744;49.364;7.484;2022-12-18T03:16:10;-2.50;99.90
19220;DHT22;9744;49.364;7.484;2022-12-18T03:18:44;-2.50;99.90
19220;DHT22;9744;49.364;7.484;2022-12-18T03:21:13;-2.60;99.90
19220;DHT22;9744;49.364;7.484;2022-12-18T03:23:46;-2.60;99.90
19220;DHT22;9744;49.364;7.484;2022-12-18T03:26:17;-2.60;99.90
19220;DHT22;9744;49.364;7.484;2022-12-18T03:28:52;-2.60;99.90
19220;DHT22;9744;49.364;7.484;2022-12-18T03:31:22;-2.60;99.90
19220;DHT22;9744;49.364;7.484;2022-12-18T03:33:53;-2.60;99.90
19220;DHT22;9744;49.364;7.484;2022-12-18T03:36:25;-2.60;99.90
19220;DHT22;9744;49.364;7.484;2022-12-18T03:38:55;-2.60;99.90
19220;DHT22;9744;49.364;7.484;2022-12-18T03:41:33;-2.70;99.90
19220;DHT22;9744;49.364;7.484;2022-12-18T03:44:29;-2.60;99.90
19220;DHT22;9744;49.364;7.484;2022-12-18T03:47:01;-2.70;99.90
19220;DHT22;9744;49.364;7.484;2022-12-18T03:49:35;-2.70;99.90
19220;DHT22;9744;49.364;7.484;2022-12-18T03:52:10;-2.70;99.90
19220;DHT22;9744;49.364;7.484;2022-12-18T03:54:41;-2.70;99.90
19220;DHT22;9744;49.364;7.484;2022-12-18T03:57:17;-2.80;99.90
19220;DHT22;9744;49.364;7.484;2022-12-18T03:59:51;-2.80;99.90
19220;DHT22;9744;49.364;7.484;2022-12-18T04:02:23;-2.80;99.90
19220;DHT22;9744;49.364;7.484;2022-12-18T04:04:53;-2.90;99.90
19220;DHT22;9744;49.364;7.484;2022-12-18T04:07:22;-2.90;99.90
19220;DHT22;9744;49.364;7.484;2022-12-18T04:09:54;-3.00;99.90
19220;DHT22;9744;49.364;7.484;2022-12-18T04:12:24;-3.00;99.90
19220;DHT22;9744;49.364;7.484;2022-12-18T04:14:53;-3.00;99.90
19220;DHT22;9744;49.364;7.484;2022-12-18T04:17:21;-3.00;99.90
19220;DHT22;9744;49.364;7.484;2022-12-18T04:19:49;-1.80;99.90
19220;DHT22;9744;49.364;7.484;2022-12-18T04:22:17;-2.90;99.90
19220;DHT22;9744;49.364;7.484;2022-12-18T04:24:47;-2.90;99.90
19220;DHT22;9744;49.364;7.484;2022-12-18T04:27:23;-3.00;99.90
19220;DHT22;9744;49.364;7.484;2022-12-18T04:29:50;-3.00;99.90
19220;DHT22;9744;49.364;7.484;2022-12-18T04:32:19;-3.00;99.90
19220;DHT22;9744;49.364;7.484;2022-12-18T04:34:47;-3.10;99.90
19220;DHT22;9744;49.364;7.484;2022-12-18T04:37:15;-3.10;99.90
19220;DHT22;9744;49.364;7.484;2022-12-18T04:39:42;-3.20;99.90
19220;DHT22;9744;49.364;7.484;2022-12-18T04:42:17;-3.20;99.90
19220;DHT22;9744;49.364;7.484;2022-12-18T04:44:45;-3.20;99.90
19220;DHT22;9744;49.364;7.484;2022-12-18T04:47:12;-3.20;99.90
19220;DHT22;9744;49.364;7.484;2022-12-18T04:49:40;-3.20;99.90
19220;DHT22;9744;49.364;7.484;2022-12-18T04:52:07;-3.20;99.90
19220;DHT22;9744;49.364;7.484;2022-12-18T04:54:34;-3.20;99.90
19220;DHT22;9744;49.364;7.484;2022-12-18T04:57:01;-3.20;99.90
19220;DHT22;9744;49.364;7.484;2022-12-18T04:59:29;-3.20;99.90
19220;DHT22;9744;49.364;7.484;2022-12-18T05:01:56;-3.20;99.90
19220;DHT22;9744;49.364;7.484;2022-12-18T05:04:23;-3.20;99.90
19220;DHT22;9744;49.364;7.484;2022-12-18T05:06:51;-3.30;99.90
19220;DHT22;9744;49.364;7.484;2022-12-18T05:09:18;-3.30;99.90
19220;DHT22;9744;49.364;7.484;2022-12-18T05:11:46;-3.30;99.90
19220;DHT22;9744;49.364;7.484;2022-12-18T05:14:13;-3.30;99.90
19220;DHT22;9744;49.364;7.484;2022-12-18T05:16:40;-3.30;99.90
19220;DHT22;9744;49.364;7.484;2022-12-18T05:19:07;-3.40;99.90
19220;DHT22;9744;49.364;7.484;2022-12-18T05:21:34;-3.40;99.90
19220;DHT22;9744;49.364;7.484;2022-12-18T05:24:04;-3.40;99.90
19220;DHT22;9744;49.364;7.484;2022-12-18T05:26:31;-3.50;99.90
19220;DHT22;9744;49.364;7.484;2022-12-18T05:28:58;-3.60;99.90
19220;DHT22;9744;49.364;7.484;2022-12-18T05:31:25;-3.30;99.90
19220;DHT22;9744;49.364;7.484;2022-12-18T05:33:52;-3.60;99.90
19220;DHT22;9744;49.364;7.484;2022-12-18T05:36:19;-3.60;99.90
19220;DHT22;9744;49.364;7.484;2022-12-18T05:38:46;-3.70;99.90
19220;DHT22;9744;49.364;7.484;2022-12-18T05:41:15;-3.70;99.90
19220;DHT22;9744;49.364;7.484;2022-12-18T05:43:42;-3.70;99.90
19220;DHT22;9744;49.364;7.484;2022-12-18T05:46:12;-3.70;99.90
19220;DHT22;9744;49.364;7.484;2022-12-18T05:48:40;-3.60;99.90
19220;DHT22;9744;49.364;7.484;2022-12-18T05:51:09;-3.60;99.90
19220;DHT22;9744;49.364;7.484;2022-12-18T05:53:37;-3.50;99.90
19220;DHT22;9744;49.364;7.484;2022-12-18T05:56:06;-3.50;99.90
19220;DHT22;9744;49.364;7.484;2022-12-18T05:58:36;-3.50;99.90
19220;DHT22;9744;49.364;7.484;2022-12-18T06:01:08;-3.40;99.90
19220;DHT22;9744;49.364;7.484;2022-12-18T06:03:36;-3.40;99.90
19220;DHT22;9744;49.364;7.484;2022-12-18T06:06:03;-3.40;99.90
19220;DHT22;9744;49.364;7.484;2022-12-18T06:08:30;-3.30;99.90
19220;DHT22;9744;49.364;7.484;2022-12-18T06:10:57;-3.30;99.90
19220;DHT22;9744;49.364;7.484;2022-12-18T06:13:24;-3.40;99.90
19220;DHT22;9744;49.364;7.484;2022-12-18T06:15:53;-3.40;99.90
19220;DHT22;9744;49.364;7.484;2022-12-18T06:18:20;-3.40;99.90
19220;DHT22;9744;49.364;7.484;2022-12-18T06:20:54;-3.30;99.90
19220;DHT22;9744;49.364;7.484;2022-12-18T06:23:22;-3.50;99.90
19220;DHT22;9744;49.364;7.484;2022-12-18T06:25:49;-3.50;99.90
19220;DHT22;9744;49.364;7.484;2022-12-18T06:28:17;-3.50;99.90
19220;DHT22;9744;49.364;7.484;2022-12-18T06:30:44;-3.50;99.90
19220;DHT22;9744;49.364;7.484;2022-12-18T06:33:13;-3.60;99.90
19220;DHT22;9744;49.364;7.484;2022-12-18T06:35:40;-3.70;99.90
19220;DHT22;9744;49.364;7.484;2022-12-18T06:38:08;-3.70;99.90
19220;DHT22;9744;49.364;7.484;2022-12-18T06:40:36;-3.70;99.90
19220;DHT22;9744;49.364;7.484;2022-12-18T06:43:03;-3.70;99.90
19220;DHT22;9744;49.364;7.484;2022-12-18T06:45:31;-3.70;99.90
19220;DHT22;9744;49.364;7.484;2022-12-18T06:47:58;-3.70;99.90
19220;DHT22;9744;49.364;7.484;2022-12-18T06:50:26;-3.70;99.90
19220;DHT22;9744;49.364;7.484;2022-12-18T06:52:54;-3.70;99.90
19220;DHT22;9744;49.364;7.484;2022-12-18T06:55:21;-3.70;99.90
19220;DHT22;9744;49.364;7.484;2022-12-18T06:57:48;-3.70;99.90
19220;DHT22;9744;49.364;7.484;2022-12-18T07:00:15;-3.70;99.90
19220;DHT22;9744;49.364;7.484;2022-12-18T07:02:42;-3.70;99.90
19220;DHT22;9744;49.364;7.484;2022-12-18T07:05:09;-3.70;99.90
19220;DHT22;9744;49.364;7.484;2022-12-18T07:07:38;-3.80;99.90
19220;DHT22;9744;49.364;7.484;2022-12-18T07:10:05;-3.80;99.90
19220;DHT22;9744;49.364;7.484;2022-12-18T07:12:32;-3.80;99.90
19220;DHT22;9744;49.364;7.484;2022-12-18T07:15:00;-3.80;99.90
19220;DHT22;9744;49.364;7.484;2022-12-18T07:17:27;-3.80;99.90
19220;DHT22;9744;49.364;7.484;2022-12-18T07:19:55;-3.90;99.90
19220;DHT22;9744;49.364;7.484;2022-12-18T07:22:22;-3.90;99.90
19220;DHT22;9744;49.364;7.484;2022-12-18T07:24:50;-3.90;99.90
19220;DHT22;9744;49.364;7.484;2022-12-18T07:27:17;-3.90;99.90
19220;DHT22;9744;49.364;7.484;2022-12-18T07:29:45;-3.90;99.90
19220;DHT22;9744;49.364;7.484;2022-12-18T07:32:12;-3.90;99.90
19220;DHT22;9744;49.364;7.484;2022-12-18T07:34:39;-3.90;99.90
19220;DHT22;9744;49.364;7.484;2022-12-18T07:37:06;-3.90;99.90
19220;DHT22;9744;49.364;7.484;2022-12-18T07:39:33;-3.90;99.90
19220;DHT22;9744;49.364;7.484;2022-12-18T07:42:01;-3.90;99.90
19220;DHT22;9744;49.364;7.484;2022-12-18T07:44:46;-3.90;99.90
19220;DHT22;9744;49.364;7.484;2022-12-18T07:47:13;-3.80;99.90
19220;DHT22;9744;49.364;7.484;2022-12-18T07:49:40;-3.90;99.90
19220;DHT22;9744;49.364;7.484;2022-12-18T07:52:07;-3.80;99.90
19220;DHT22;9744;49.364;7.484;2022-12-18T07:54:35;-3.90;99.90
19220;DHT22;9744;49.364;7.484;2022-12-18T07:57:03;-3.90;99.90
19220;DHT22;9744;49.364;7.484;2022-12-18T07:59:30;-3.90;99.90
19220;DHT22;9744;49.364;7.484;2022-12-18T08:01:57;-3.90;99.90
19220;DHT22;9744;49.364;7.484;2022-12-18T08:04:25;-3.90;99.90
19220;DHT22;9744;49.364;7.484;2022-12-18T08:06:52;-3.90;99.90
19220;DHT22;9744;49.364;7.484;2022-12-18T08:09:19;-3.90;99.90
19220;DHT22;9744;49.364;7.484;2022-12-18T08:11:46;-3.90;99.90
19220;DHT22;9744;49.364;7.484;2022-12-18T08:14:15;-3.80;99.90
19220;DHT22;9744;49.364;7.484;2022-12-18T08:16:42;-3.80;99.90
19220;DHT22;9744;49.364;7.484;2022-12-18T08:19:10;-3.80;99.90
19220;DHT22;9744;49.364;7.484;2022-12-18T08:21:38;-3.80;99.90
19220;DHT22;9744;49.364;7.484;2022-12-18T08:24:09;-3.70;99.90
19220;DHT22;9744;49.364;7.484;2022-12-18T08:26:36;-3.70;99.90
19220;DHT22;9744;49.364;7.484;2022-12-18T08:29:03;-3.60;99.90
19220;DHT22;9744;49.364;7.484;2022-12-18T08:31:32;-3.60;99.90
19220;DHT22;9744;49.364;7.484;2022-12-18T08:34:00;-3.60;99.90
19220;DHT22;9744;49.364;7.484;2022-12-18T08:36:27;-3.60;99.90
19220;DHT22;9744;49.364;7.484;2022-12-18T08:38:54;-3.60;99.90
19220;DHT22;9744;49.364;7.484;2022-12-18T08:41:21;-3.60;99.90
19220;DHT22;9744;49.364;7.484;2022-12-18T08:43:49;-3.50;99.90
19220;DHT22;9744;49.364;7.484;2022-12-18T08:46:36;-3.50;99.90
19220;DHT22;9744;49.364;7.484;2022-12-18T08:49:05;-3.50;99.90
19220;DHT22;9744;49.364;7.484;2022-12-18T08:51:33;-3.50;99.90
19220;DHT22;9744;49.364;7.484;2022-12-18T08:54:00;-3.40;99.90
19220;DHT22;9744;49.364;7.484;2022-12-18T08:56:27;-3.40;99.90
19220;DHT22;9744;49.364;7.484;2022-12-18T08:58:56;-3.40;99.90
19220;DHT22;9744;49.364;7.484;2022-12-18T09:01:23;-3.30;99.90
19220;DHT22;9744;49.364;7.484;2022-12-18T09:03:52;-3.30;99.90
19220;DHT22;9744;49.364;7.484;2022-12-18T09:06:21;-3.30;99.90
19220;DHT22;9744;49.364;7.484;2022-12-18T09:08:49;-3.30;99.90
19220;DHT22;9744;49.364;7.484;2022-12-18T09:11:20;-3.20;99.90
19220;DHT22;9744;49.364;7.484;2022-12-18T09:13:48;-3.20;99.90
19220;DHT22;9744;49.364;7.484;2022-12-18T09:16:15;-3.10;99.90
19220;DHT22;9744;49.364;7.484;2022-12-18T09:18:42;-3.10;99.90
19220;DHT22;9744;49.364;7.484;2022-12-18T09:21:13;-3.00;99.90
19220;DHT22;9744;49.364;7.484;2022-12-18T09:23:41;-2.90;99.90
19220;DHT22;9744;49.364;7.484;2022-12-18T09:26:08;-2.90;99.90
19220;DHT22;9744;49.364;7.484;2022-12-18T09:28:35;-2.80;99.90
19220;DHT22;9744;49.364;7.484;2022-12-18T09:31:07;-2.70;99.90
19220;DHT22;9744;49.364;7.484;2022-12-18T09:33:34;-2.70;99.90
19220;DHT22;9744;49.364;7.484;2022-12-18T09:36:04;-2.60;99.90
19220;DHT22;9744;49.364;7.484;2022-12-18T09:38:33;-2.50;99.90
19220;DHT22;9744;49.364;7.484;2022-12-18T09:41:04;-2.40;99.90
19220;DHT22;9744;49.364;7.484;2022-12-18T09:43:37;-2.30;99.90
19220;DHT22;9744;49.364;7.484;2022-12-18T09:46:10;-2.10;99.90
19220;DHT22;9744;49.364;7.484;2022-12-18T09:48:41;-2.00;99.90
19220;DHT22;9744;49.364;7.484;2022-12-18T09:51:14;-1.90;99.90
19220;DHT22;9744;49.364;7.484;2022-12-18T09:53:47;-1.70;99.90
19220;DHT22;9744;49.364;7.484;2022-12-18T09:56:19;-1.50;99.90
19220;DHT22;9744;49.364;7.484;2022-12-18T09:58:55;-1.40;99.90
19220;DHT22;9744;49.364;7.484;2022-12-18T10:01:24;-1.30;99.90
19220;DHT22;9744;49.364;7.484;2022-12-18T10:03:52;-1.20;99.90
19220;DHT22;9744;49.364;7.484;2022-12-18T10:06:26;-1.20;99.90
19220;DHT22;9744;49.364;7.484;2022-12-18T10:08:59;-1.30;99.90
19220;DHT22;9744;49.364;7.484;2022-12-18T10:11:37;-1.30;99.90
19220;DHT22;9744;49.364;7.484;2022-12-18T10:14:10;-1.40;99.90
19220;DHT22;9744;49.364;7.484;2022-12-18T10:16:51;-1.20;99.90
19220;DHT22;9744;49.364;7.484;2022-12-18T10:19:39;-1.00;99.90
19220;DHT22;9744;49.364;7.484;2022-12-18T10:22:39;-1.00;99.90
19220;DHT22;9744;49.364;7.484;2022-12-18T10:25:19;-0.90;99.90
19220;DHT22;9744;49.364;7.484;2022-12-18T10:27:48;-0.80;99.90
19220;DHT22;9744;49.364;7.484;2022-12-18T10:30:20;-0.70;99.90
19220;DHT22;9744;49.364;7.484;2022-12-18T10:32:48;-0.70;99.90
19220;DHT22;9744;49.364;7.484;2022-12-18T10:35:19;-0.60;99.90
19220;DHT22;9744;49.364;7.484;2022-12-18T10:38:02;-0.50;99.90
19220;DHT22;9744;49.364;7.484;2022-12-18T10:40:31;-0.40;99.90
19220;DHT22;9744;49.364;7.484;2022-12-18T10:43:04;-0.70;99.90
19220;DHT22;9744;49.364;7.484;2022-12-18T10:45:32;-1.30;99.90
19220;DHT22;9744;49.364;7.484;2022-12-18T10:47:59;-1.30;99.90
19220;DHT22;9744;49.364;7.484;2022-12-18T10:50:30;-1.10;99.90
19220;DHT22;9744;49.364;7.484;2022-12-18T10:52:59;-0.80;99.90
19220;DHT22;9744;49.364;7.484;2022-12-18T10:55:32;-0.60;99.90
19220;DHT22;9744;49.364;7.484;2022-12-18T10:58:18;-0.40;99.90
19220;DHT22;9744;49.364;7.484;2022-12-18T11:01:03;-0.30;99.90
19220;DHT22;9744;49.364;7.484;2022-12-18T11:03:33;-0.10;99.90
19220;DHT22;9744;49.364;7.484;2022-12-18T11:06:03;0.00;99.90
19220;DHT22;9744;49.364;7.484;2022-12-18T11:08:31;0.10;99.90
19220;DHT22;9744;49.364;7.484;2022-12-18T11:11:00;0.00;99.90
19220;DHT22;9744;49.364;7.484;2022-12-18T11:13:29;0.10;99.90
19220;DHT22;9744;49.364;7.484;2022-12-18T11:15:58;0.10;99.90
19220;DHT22;9744;49.364;7.484;2022-12-18T11:18:27;0.20;99.90
19220;DHT22;9744;49.364;7.484;2022-12-18T11:20:56;0.20;99.90
19220;DHT22;9744;49.364;7.484;2022-12-18T11:23:25;0.30;99.90
19220;DHT22;9744;49.364;7.484;2022-12-18T11:26:00;0.30;99.90
19220;DHT22;9744;49.364;7.484;2022-12-18T11:28:35;0.30;99.90
19220;DHT22;9744;49.364;7.484;2022-12-18T11:31:19;0.40;99.90
19220;DHT22;9744;49.364;7.484;2022-12-18T11:36:33;0.50;99.90
19220;DHT22;9744;49.364;7.484;2022-12-18T11:39:07;0.50;99.90
19220;DHT22;9744;49.364;7.484;2022-12-18T11:41:41;0.50;99.90
19220;DHT22;9744;49.364;7.484;2022-12-18T11:44:31;0.50;99.90
19220;DHT22;9744;49.364;7.484;2022-12-18T11:47:04;0.60;99.90
19220;DHT22;9744;49.364;7.484;2022-12-18T11:49:33;0.60;99.90
19220;DHT22;9744;49.364;7.484;2022-12-18T11:52:04;0.60;99.90
19220;DHT22;9744;49.364;7.484;2022-12-18T11:54:34;0.60;99.90
19220;DHT22;9744;49.364;7.484;2022-12-18T11:57:07;0.60;99.90
19220;DHT22;9744;49.364;7.484;2022-12-18T11:59:47;0.60;99.90
19220;DHT22;9744;49.364;7.484;2022-12-18T12:02:32;0.70;99.90
19220;DHT22;9744;49.364;7.484;2022-12-18T12:05:17;0.70;99.90
19220;DHT22;9744;49.364;7.484;2022-12-18T12:07:50;0.70;99.90
19220;DHT22;9744;49.364;7.484;2022-12-18T12:10:29;0.70;99.90
19220;DHT22;9744;49.364;7.484;2022-12-18T12:13:14;0.80;99.90
19220;DHT22;9744;49.364;7.484;2022-12-18T12:15:50;0.80;99.90
19220;DHT22;9744;49.364;7.484;2022-12-18T12:18:25;0.80;99.90
19220;DHT22;9744;49.364;7.484;2022-12-18T12:21:03;0.90;99.90
19220;DHT22;9744;49.364;7.484;2022-12-18T12:23:40;1.00;99.90
19220;DHT22;9744;49.364;7.484;2022-12-18T12:26:12;1.00;99.90
19220;DHT22;9744;49.364;7.484;2022-12-18T12:28:56;1.10;99.90
19220;DHT22;9744;49.364;7.484;2022-12-18T12:31:48;1.90;99.90
19220;DHT22;9744;49.364;7.484;2022-12-18T12:34:22;1.10;99.90
19220;DHT22;9744;49.364;7.484;2022-12-18T12:37:03;1.10;99.90
19220;DHT22;9744;49.364;7.484;2022-12-18T12:39:37;1.10;99.90
19220;DHT22;9744;49.364;7.484;2022-12-18T12:42:10;1.00;99.90
19220;DHT22;9744;49.364;7.484;2022-12-18T12:44:55;1.00;99.90
19220;DHT22;9744;49.364;7.484;2022-12-18T12:47:27;1.00;99.90
19220;DHT22;9744;49.364;7.484;2022-12-18T12:49:56;0.90;99.90
19220;DHT22;9744;49.364;7.484;2022-12-18T12:52:30;0.90;99.90
19220;DHT22;9744;49.364;7.484;2022-12-18T12:54:59;0.90;99.90
19220;DHT22;9744;49.364;7.484;2022-12-18T12:57:32;0.80;99.90
19220;DHT22;9744;49.364;7.484;2022-12-18T13:00:06;0.80;99.90
19220;DHT22;9744;49.364;7.484;2022-12-18T13:02:39;0.80;99.90
19220;DHT22;9744;49.364;7.484;2022-12-18T13:05:16;0.60;99.90
19220;DHT22;9744;49.364;7.484;2022-12-18T13:07:49;0.60;99.90
19220;DHT22;9744;49.364;7.484;2022-12-18T13:10:32;0.60;99.90
19220;DHT22;9744;49.364;7.484;2022-12-18T13:13:01;0.70;99.90
19220;DHT22;9744;49.364;7.484;2022-12-18T13:15:38;0.60;99.90
19220;DHT22;9744;49.364;7.484;2022-12-18T13:18:15;0.50;99.90
19220;DHT22;9744;49.364;7.484;2022-12-18T13:20:44;0.30;99.90
19220;DHT22;9744;49.364;7.484;2022-12-18T13:23:30;0.30;99.90
19220;DHT22;9744;49.364;7.484;2022-12-18T13:25:58;0.40;99.90
19220;DHT22;9744;49.364;7.484;2022-12-18T13:28:50;0.50;99.90
19220;DHT22;9744;49.364;7.484;2022-12-18T13:34:21;0.30;99.90
19220;DHT22;9744;49.364;7.484;2022-12-18T13:36:49;0.30;99.90
19220;DHT22;9744;49.364;7.484;2022-12-18T13:39:30;0.20;99.90
19220;DHT22;9744;49.364;7.484;2022-12-18T13:42:31;0.20;99.90
19220;DHT22;9744;49.364;7.484;2022-12-18T13:45:44;0.20;99.90
19220;DHT22;9744;49.364;7.484;2022-12-18T13:48:21;0.30;99.90
19220;DHT22;9744;49.364;7.484;2022-12-18T13:51:03;0.20;99.90
19220;DHT22;9744;49.364;7.484;2022-12-18T13:53:34;0.30;99.90
19220;DHT22;9744;49.364;7.484;2022-12-18T13:56:03;0.30;99.90
19220;DHT22;9744;49.364;7.484;2022-12-18T13:58:30;0.20;99.90
19220;DHT22;9744;49.364;7.484;2022-12-18T14:00:58;0.30;99.90
19220;DHT22;9744;49.364;7.484;2022-12-18T14:03:29;0.30;99.90
19220;DHT22;9744;49.364;7.484;2022-12-18T14:06:01;0.30;99.90
19220;DHT22;9744;49.364;7.484;2022-12-18T14:08:34;0.40;99.90
19220;DHT22;9744;49.364;7.484;2022-12-18T14:11:03;0.40;99.90
19220;DHT22;9744;49.364;7.484;2022-12-18T14:13:34;0.50;99.90
19220;DHT22;9744;49.364;7.484;2022-12-18T14:16:04;0.50;99.90
19220;DHT22;9744;49.364;7.484;2022-12-18T14:18:37;0.60;99.90
19220;DHT22;9744;49.364;7.484;2022-12-18T14:21:13;0.60;99.90
19220;DHT22;9744;49.364;7.484;2022-12-18T14:23:42;0.40;99.90
19220;DHT22;9744;49.364;7.484;2022-12-18T14:26:22;0.30;99.90
19220;DHT22;9744;49.364;7.484;2022-12-18T14:28:49;0.30;99.90
19220;DHT22;9744;49.364;7.484;2022-12-18T14:31:18;0.10;99.90
19220;DHT22;9744;49.364;7.484;2022-12-18T14:33:45;0.00;99.90
19220;DHT22;9744;49.364;7.484;2022-12-18T14:36:17;-0.40;99.90
19220;DHT22;9744;49.364;7.484;2022-12-18T14:38:48;-0.50;99.90
19220;DHT22;9744;49.364;7.484;2022-12-18T14:41:17;-0.50;99.90
19220;DHT22;9744;49.364;7.484;2022-12-18T14:43:46;-0.40;99.90
19220;DHT22;9744;49.364;7.484;2022-12-18T14:46:30;-0.50;99.90
19220;DHT22;9744;49.364;7.484;2022-12-18T14:49:01;-0.60;99.90
19220;DHT22;9744;49.364;7.484;2022-12-18T14:51:31;-0.80;99.90
19220;DHT22;9744;49.364;7.484;2022-12-18T14:54:00;-0.90;99.90
19220;DHT22;9744;49.364;7.484;2022-12-18T14:56:29;-0.90;99.90
19220;DHT22;9744;49.364;7.484;2022-12-18T14:58:59;-0.70;99.90
19220;DHT22;9744;49.364;7.484;2022-12-18T15:01:29;-1.10;99.90
19220;DHT22;9744;49.364;7.484;2022-12-18T15:03:58;-0.10;99.90
19220;DHT22;9744;49.364;7.484;2022-12-18T15:06:32;-1.20;99.90
19220;DHT22;9744;49.364;7.484;2022-12-18T15:09:02;-1.00;99.90
19220;DHT22;9744;49.364;7.484;2022-12-18T15:11:43;-1.00;99.90
19220;DHT22;9744;49.364;7.484;2022-12-18T15:14:30;-1.30;99.90
19220;DHT22;9744;49.364;7.484;2022-12-18T15:16:58;-1.50;99.90
19220;DHT22;9744;49.364;7.484;2022-12-18T15:19:32;-1.40;99.90
19220;DHT22;9744;49.364;7.484;2022-12-18T15:22:02;-1.40;99.90
19220;DHT22;9744;49.364;7.484;2022-12-18T15:24:31;-1.30;99.90
19220;DHT22;9744;49.364;7.484;2022-12-18T15:26:58;-1.40;99.90
19220;DHT22;9744;49.364;7.484;2022-12-18T15:29:26;-1.60;99.90
19220;DHT22;9744;49.364;7.484;2022-12-18T15:32:02;-1.60;99.90
19220;DHT22;9744;49.364;7.484;2022-12-18T15:34:31;-1.80;99.90
19220;DHT22;9744;49.364;7.484;2022-12-18T15:36:59;-1.70;99.90
19220;DHT22;9744;49.364;7.484;2022-12-18T15:39:28;-1.70;99.90
19220;DHT22;9744;49.364;7.484;2022-12-18T15:41:55;-1.80;99.90
19220;DHT22;9744;49.364;7.484;2022-12-18T15:44:39;-1.80;99.90
19220;DHT22;9744;49.364;7.484;2022-12-18T15:47:11;-1.80;99.90
19220;DHT22;9744;49.364;7.484;2022-12-18T15:49:39;-2.10;99.90
19220;DHT22;9744;49.364;7.484;2022-12-18T15:52:08;-2.00;99.90
19220;DHT22;9744;49.364;7.484;2022-12-18T15:54:39;-2.10;99.90
19220;DHT22;9744;49.364;7.484;2022-12-18T15:57:23;-2.30;99.90
19220;DHT22;9744;49.364;7.484;2022-12-18T15:59:52;-2.50;99.90
19220;DHT22;9744;49.364;7.484;2022-12-18T16:02:20;-2.60;99.90
19220;DHT22;9744;49.364;7.484;2022-12-18T16:04:49;-2.60;99.90
19220;DHT22;9744;49.364;7.484;2022-12-18T16:07:17;-2.60;99.90
19220;DHT22;9744;49.364;7.484;2022-12-18T16:09:46;-2.60;99.90
19220;DHT22;9744;49.364;7.484;2022-12-18T16:12:18;-2.90;99.90
19220;DHT22;9744;49.364;7.484;2022-12-18T16:14:46;-2.90;99.90
19220;DHT22;9744;49.364;7.484;2022-12-18T16:17:16;-2.80;99.90
19220;DHT22;9744;49.364;7.484;2022-12-18T16:19:44;-2.90;99.90
19220;DHT22;9744;49.364;7.484;2022-12-18T16:22:18;-2.90;99.90